Terminal Aerodrome Forecast
Issued by NWS

Home | Current Version | Previous Version | Text Only | Print | Product List | Glossary On
Versions: 1 2 3 4 5 6 7 8 9 10 11 12 13 14 15 16 17 18 19 20
000
FTAK31 PAJN 250100 AAA
TAFAYA
TAF AMD
PAYA 250129Z 2501/2524 20005KT P6SM VCSH SCT019 SCT050 BKN070
      TEMPO 2501/2504 3SM -SHRA BR BKN019 OVC050
     FM250400 VRB03KT 6SM -SHRA SCT010 OVC025
     FM251700 10004KT P6SM -SHRA SCT020 OVC040
     FM252100 VRB05KT P6SM VCSH OVC040
      AMD LTD TO CLD VIS AND WIND TIL 251000=

USA.gov is the U.S. government's official web portal to all federal, state and local government web resources and services.